You are listening to:
KLAS ATIS - Las Vegas, Nevada, United States

KLAS 282056Z 06012G18KT 10SM CLR 32/M06 A3010 RMK AO2 SLP166 T03171056 58022

If stream doesn't start automatically press the play button
If stream stops then reload player then press play